Time;durP1;ratioP1;P1;durP2;ratioP2;P2;SDS_P1;SDS_P2;PMS_P1;PMS_P2;Temp;Humidity;BMP_temperature;BMP_pressure;BME280_temperature;BME280_humidity;BME280_pressure;Samples;Min_cycle;Max_cycle;Signal;HPM_P1;HPM_P2
2021/10/31 00:01:42;;;;;;;8.82;6.25;;;12.00;99.90;;;;;;5048167;28;20056;-44
2021/10/31 00:04:08;;;;;;;7.40;6.70;;;12.00;99.90;;;;;;5059563;28;20021;-44
2021/10/31 00:06:33;;;;;;;8.77;6.95;;;12.00;99.90;;;;;;5049487;28;20166;-43
2021/10/31 00:08:59;;;;;;;7.97;7.10;;;12.00;99.90;;;;;;5056453;28;20547;-44
2021/10/31 00:11:24;;;;;;;11.35;7.25;;;12.00;99.90;;;;;;5052044;28;20043;-43
2021/10/31 00:13:50;;;;;;;7.40;6.30;;;11.90;99.90;;;;;;5054025;28;20021;-43
2021/10/31 00:16:16;;;;;;;9.05;6.53;;;11.90;99.90;;;;;;5055465;28;20114;-44
2021/10/31 00:18:41;;;;;;;11.88;6.95;;;11.90;99.90;;;;;;5049927;28;20086;-44
2021/10/31 00:21:09;;;;;;;7.50;6.18;;;11.90;99.90;;;;;;5058133;28;20025;-44
2021/10/31 00:23:35;;;;;;;6.55;5.40;;;11.90;99.90;;;;;;5049697;28;20021;-43
2021/10/31 00:26:01;;;;;;;7.43;5.70;;;11.80;99.90;;;;;;5058545;28;20044;-43
2021/10/31 00:28:27;;;;;;;8.63;5.88;;;11.80;99.90;;;;;;5049035;28;20021;-42
2021/10/31 00:30:53;;;;;;;9.07;6.63;;;11.80;99.90;;;;;;5059326;28;20029;-43
2021/10/31 00:33:19;;;;;;;9.68;6.88;;;11.80;99.90;;;;;;5047582;28;20056;-43
2021/10/31 00:35:44;;;;;;;10.60;7.50;;;11.80;99.90;;;;;;5059827;28;20045;-43
2021/10/31 00:38:10;;;;;;;7.72;6.80;;;11.80;99.90;;;;;;5047922;28;20033;-43
2021/10/31 00:40:35;;;;;;;7.50;6.53;;;11.80;99.90;;;;;;5059893;28;20090;-45
2021/10/31 00:43:01;;;;;;;8.52;7.47;;;11.80;99.90;;;;;;5047562;28;20499;-43
2021/10/31 00:45:27;;;;;;;9.15;7.85;;;11.80;99.90;;;;;;5057592;28;20029;-44
2021/10/31 00:47:54;;;;;;;9.13;7.22;;;11.80;99.90;;;;;;5049515;28;20079;-44
2021/10/31 00:50:21;;;;;;;9.15;7.57;;;11.70;99.90;;;;;;5055035;28;20033;-44
2021/10/31 00:52:47;;;;;;;10.55;7.57;;;11.70;99.90;;;;;;5051895;28;20119;-43
2021/10/31 00:55:15;;;;;;;9.68;7.38;;;11.70;99.90;;;;;;5052663;28;20072;-43
2021/10/31 00:57:41;;;;;;;9.68;7.60;;;11.70;99.90;;;;;;5066613;28;20032;-43
2021/10/31 01:00:10;;;;;;;7.80;6.95;;;11.70;99.90;;;;;;5064279;28;20017;-43
2021/10/31 01:02:40;;;;;;;7.65;6.40;;;11.60;99.90;;;;;;5057933;28;20112;-43
2021/10/31 01:05:09;;;;;;;7.57;6.28;;;11.60;99.90;;;;;;5065761;28;20024;-43
2021/10/31 01:08:03;;;;;;;8.27;6.10;;;11.60;99.90;;;;;;5056287;28;20050;-43
2021/10/31 01:10:56;;;;;;;10.15;6.18;;;11.50;99.90;;;;;;5063540;28;20178;-43
2021/10/31 01:13:46;;;;;;;7.32;6.18;;;11.50;99.90;;;;;;5061893;28;20028;-43
2021/10/31 01:16:29;;;;;;;10.73;6.07;;;11.50;99.90;;;;;;5058538;28;20428;-43
2021/10/31 01:19:32;;;;;;;9.45;6.75;;;11.50;99.90;;;;;;5064901;28;20098;-43
2021/10/31 01:22:30;;;;;;;7.13;6.43;;;11.50;99.90;;;;;;5053397;28;20060;-42
2021/10/31 01:25:10;;;;;;;7.65;6.80;;;11.50;99.90;;;;;;5066739;28;20028;-43
2021/10/31 01:27:54;;;;;;;8.52;6.50;;;11.50;99.90;;;;;;5053520;28;20037;-44
2021/10/31 01:30:53;;;;;;;7.55;6.03;;;11.40;99.90;;;;;;5066623;28;20051;-43
2021/10/31 01:33:59;;;;;;;8.05;6.20;;;11.40;99.90;;;;;;5057822;28;20778;-44
2021/10/31 01:36:46;;;;;;;7.63;6.18;;;11.40;99.90;;;;;;5049823;28;20017;-43
2021/10/31 01:39:23;;;;;;;9.95;6.25;;;11.40;99.90;;;;;;5052310;28;20021;-43
2021/10/31 01:42:09;;;;;;;7.45;6.18;;;11.30;99.90;;;;;;5052534;28;20035;-44
2021/10/31 01:44:39;;;;;;;9.40;6.07;;;11.30;99.90;;;;;;5049641;28;20112;-44
2021/10/31 01:47:25;;;;;;;8.48;6.28;;;11.30;99.90;;;;;;5053501;28;20124;-43
2021/10/31 01:50:05;;;;;;;6.85;5.72;;;11.30;99.90;;;;;;5048798;28;20595;-43
2021/10/31 01:52:36;;;;;;;9.30;6.32;;;11.30;99.90;;;;;;5055379;28;20395;-43
2021/10/31 01:55:07;;;;;;;8.75;6.05;;;11.20;99.90;;;;;;5049035;28;20130;-42
2021/10/31 01:57:36;;;;;;;7.68;6.35;;;11.20;99.90;;;;;;5050692;28;20728;-43
2021/10/31 02:00:09;;;;;;;8.00;5.70;;;11.20;99.90;;;;;;5062309;28;20123;-43
2021/10/31 02:02:40;;;;;;;8.70;6.05;;;11.20;99.90;;;;;;5058908;28;20542;-44
2021/10/31 02:05:07;;;;;;;6.72;6.07;;;11.20;99.90;;;;;;5060822;28;20028;-44
2021/10/31 02:07:36;;;;;;;10.23;6.72;;;11.20;99.90;;;;;;5061064;28;20044;-43
2021/10/31 02:10:03;;;;;;;7.85;6.05;;;11.10;99.90;;;;;;5059210;28;20689;-43
2021/10/31 02:12:29;;;;;;;12.02;6.60;;;11.20;99.90;;;;;;5062620;28;20024;-43
2021/10/31 02:14:59;;;;;;;9.90;6.28;;;11.20;99.90;;;;;;5056825;28;20039;-44
2021/10/31 02:17:26;;;;;;;9.35;6.10;;;11.10;99.90;;;;;;5064710;28;20016;-43
2021/10/31 02:19:53;;;;;;;6.78;5.85;;;11.10;99.90;;;;;;5054250;28;20099;-43
2021/10/31 02:22:25;;;;;;;8.23;5.78;;;11.10;99.90;;;;;;5065131;28;20033;-43
2021/10/31 02:24:51;;;;;;;9.55;6.22;;;11.10;99.90;;;;;;5054887;28;20024;-43
2021/10/31 02:27:19;;;;;;;8.00;5.93;;;11.10;99.90;;;;;;5065127;28;20060;-43
2021/10/31 02:29:52;;;;;;;6.60;5.40;;;11.10;99.90;;;;;;5054451;28;20120;-43
2021/10/31 02:32:19;;;;;;;6.35;5.72;;;11.10;99.90;;;;;;5066057;28;20766;-45
2021/10/31 02:34:45;;;;;;;9.90;5.60;;;11.10;99.90;;;;;;5057538;28;20017;-42
2021/10/31 02:37:11;;;;;;;7.93;6.05;;;11.10;99.90;;;;;;5046379;28;20032;-42
2021/10/31 02:39:37;;;;;;;10.15;6.07;;;11.10;99.90;;;;;;5057771;28;20023;-44
2021/10/31 02:42:05;;;;;;;9.55;6.50;;;11.00;99.90;;;;;;5045902;28;20054;-43
2021/10/31 02:44:31;;;;;;;8.02;6.05;;;11.00;99.90;;;;;;5057119;28;20028;-44
2021/10/31 02:46:57;;;;;;;7.88;5.80;;;11.00;99.90;;;;;;5046766;28;20095;-44
2021/10/31 02:49:24;;;;;;;6.82;5.00;;;11.00;99.90;;;;;;5054688;28;20028;-44
2021/10/31 02:52:10;;;;;;;7.47;5.43;;;11.00;99.90;;;;;;5049719;28;20021;-43
2021/10/31 02:55:09;;;;;;;7.47;5.63;;;11.00;99.90;;;;;;5053838;28;20024;-44
2021/10/31 02:58:12;;;;;;;6.65;4.95;;;11.00;99.90;;;;;;5025782;28;20072;-44
2021/10/31 03:00:39;;;;;;;8.93;5.22;;;11.00;99.90;;;;;;5057017;28;20025;-43
2021/10/31 03:03:07;;;;;;;7.07;5.25;;;10.90;99.90;;;;;;5045957;28;20722;-43
2021/10/31 03:05:33;;;;;;;7.70;5.97;;;10.90;99.90;;;;;;5058160;28;20037;-43
2021/10/31 03:07:59;;;;;;;10.48;5.68;;;10.90;99.90;;;;;;5044840;28;20037;-43
2021/10/31 03:10:25;;;;;;;8.18;5.53;;;10.90;99.90;;;;;;5057247;28;20059;-44
2021/10/31 03:12:50;;;;;;;7.50;5.60;;;10.90;99.90;;;;;;5046751;28;20033;-43
2021/10/31 03:15:17;;;;;;;7.15;5.50;;;10.90;99.90;;;;;;5058029;28;20031;-44
2021/10/31 03:17:43;;;;;;;8.73;5.97;;;10.90;99.90;;;;;;5051870;28;20163;-44
2021/10/31 03:20:09;;;;;;;8.75;5.95;;;10.90;99.90;;;;;;5055978;28;20469;-42
2021/10/31 03:22:36;;;;;;;8.38;5.93;;;10.90;99.90;;;;;;5054279;28;20029;-43
2021/10/31 03:25:02;;;;;;;8.00;6.18;;;10.90;99.90;;;;;;5053415;28;20033;-44
2021/10/31 03:27:28;;;;;;;6.72;5.80;;;10.90;99.90;;;;;;5057131;28;20037;-44
2021/10/31 03:29:53;;;;;;;10.40;6.28;;;10.90;99.90;;;;;;5049796;28;20496;-44
2021/10/31 03:32:22;;;;;;;7.07;5.28;;;10.90;99.90;;;;;;5060380;28;20027;-43
2021/10/31 03:34:48;;;;;;;7.13;5.97;;;10.90;99.90;;;;;;5050044;28;20028;-43
2021/10/31 03:37:13;;;;;;;9.13;6.38;;;10.90;99.90;;;;;;5059561;28;20417;-44
2021/10/31 03:39:39;;;;;;;9.65;6.68;;;10.90;99.90;;;;;;5049273;28;20120;-43
2021/10/31 03:42:05;;;;;;;7.75;5.95;;;10.90;99.90;;;;;;5060924;28;20056;-44
2021/10/31 03:44:36;;;;;;;7.82;6.07;;;11.00;99.90;;;;;;5048485;28;20029;-43
2021/10/31 03:47:02;;;;;;;8.15;5.82;;;10.90;99.90;;;;;;5061297;28;20090;-44
2021/10/31 03:49:28;;;;;;;6.97;6.10;;;11.00;99.90;;;;;;5047857;28;20049;-43
2021/10/31 03:51:53;;;;;;;7.15;5.85;;;11.00;99.90;;;;;;5061093;28;20129;-43
2021/10/31 03:54:19;;;;;;;9.02;6.45;;;11.00;99.90;;;;;;5049421;28;20066;-43
2021/10/31 03:56:44;;;;;;;8.93;5.65;;;11.00;99.90;;;;;;5057128;28;20062;-43
2021/10/31 03:59:10;;;;;;;8.10;6.13;;;11.00;99.90;;;;;;5051924;28;20032;-43
2021/10/31 04:01:35;;;;;;;7.70;6.20;;;11.00;99.90;;;;;;5055173;28;20023;-43
2021/10/31 04:04:02;;;;;;;7.53;6.28;;;11.00;99.90;;;;;;5053210;28;20094;-44
2021/10/31 04:06:28;;;;;;;6.55;5.80;;;10.90;99.90;;;;;;5052529;28;20221;-43
2021/10/31 04:08:53;;;;;;;7.10;6.30;;;10.90;99.90;;;;;;5056755;28;20036;-43
2021/10/31 04:11:19;;;;;;;8.45;6.90;;;10.90;99.90;;;;;;5049862;28;20040;-44
2021/10/31 04:13:44;;;;;;;7.28;5.93;;;10.90;99.90;;;;;;5058696;28;20016;-44
2021/10/31 04:16:10;;;;;;;7.38;5.90;;;11.00;99.90;;;;;;5049708;28;20016;-43
2021/10/31 04:18:35;;;;;;;8.40;6.57;;;11.00;99.90;;;;;;5058718;28;20412;-43
2021/10/31 04:21:01;;;;;;;9.52;5.90;;;11.00;99.90;;;;;;5048254;28;20106;-43
2021/10/31 04:23:27;;;;;;;8.60;6.10;;;11.00;99.90;;;;;;5060039;28;20101;-43
2021/10/31 04:25:53;;;;;;;6.82;6.13;;;11.00;99.90;;;;;;5047090;28;20026;-43
2021/10/31 04:28:19;;;;;;;7.10;6.18;;;11.00;99.90;;;;;;5060512;28;20200;-43
2021/10/31 04:30:45;;;;;;;10.98;6.60;;;11.00;99.90;;;;;;5047666;28;20060;-43
2021/10/31 04:33:10;;;;;;;8.27;6.15;;;11.00;99.90;;;;;;5059210;28;20025;-43
2021/10/31 04:35:39;;;;;;;8.60;5.78;;;10.90;99.90;;;;;;5048559;28;20035;-43
2021/10/31 04:38:11;;;;;;;9.52;6.80;;;10.90;99.90;;;;;;5057546;28;20094;-43
2021/10/31 04:40:39;;;;;;;9.93;6.82;;;10.90;99.90;;;;;;5049479;28;20064;-43
2021/10/31 04:43:10;;;;;;;7.20;6.43;;;10.90;99.90;;;;;;5055780;28;20033;-43
2021/10/31 04:45:35;;;;;;;9.20;6.07;;;10.90;99.90;;;;;;5050904;28;20063;-43
2021/10/31 04:48:01;;;;;;;7.68;6.30;;;10.90;99.90;;;;;;5053771;28;20481;-43
2021/10/31 04:50:30;;;;;;;10.18;6.68;;;10.80;99.90;;;;;;5054007;28;20043;-43
2021/10/31 04:52:55;;;;;;;9.88;7.00;;;10.80;99.90;;;;;;5051074;28;20083;-42
2021/10/31 04:55:23;;;;;;;7.38;6.57;;;10.80;99.90;;;;;;5056120;28;20139;-44
2021/10/31 04:57:49;;;;;;;10.75;6.40;;;10.80;99.90;;;;;;5048804;28;20528;-44
2021/10/31 05:00:15;;;;;;;8.35;7.00;;;10.80;99.90;;;;;;5057832;28;20082;-44
2021/10/31 05:02:41;;;;;;;8.13;6.72;;;10.70;99.90;;;;;;5048303;28;20481;-44
2021/10/31 05:05:07;;;;;;;9.18;6.18;;;10.70;99.90;;;;;;5058656;28;20028;-43
2021/10/31 05:07:33;;;;;;;12.15;7.35;;;10.60;99.90;;;;;;5047052;28;20029;-44
2021/10/31 05:09:58;;;;;;;9.48;6.40;;;10.60;99.90;;;;;;5059368;28;20029;-43
2021/10/31 05:12:25;;;;;;;8.45;6.30;;;10.60;99.90;;;;;;5046987;28;20029;-43
2021/10/31 05:14:52;;;;;;;8.50;6.75;;;10.50;99.90;;;;;;5058780;28;20028;-43
2021/10/31 05:17:18;;;;;;;9.55;7.13;;;10.50;99.90;;;;;;5047706;28;20025;-42
2021/10/31 05:19:43;;;;;;;8.57;6.78;;;10.50;99.90;;;;;;5058153;28;20032;-43
2021/10/31 05:22:09;;;;;;;9.25;7.53;;;10.40;99.90;;;;;;5047638;28;20031;-43
2021/10/31 05:24:34;;;;;;;10.13;7.43;;;10.40;99.90;;;;;;5055901;28;20027;-43
2021/10/31 05:27:00;;;;;;;8.95;6.97;;;10.40;99.90;;;;;;5050211;28;20583;-44
2021/10/31 05:29:25;;;;;;;9.57;7.60;;;10.30;99.90;;;;;;5052212;28;20116;-44
2021/10/31 05:31:51;;;;;;;9.60;6.82;;;10.40;99.90;;;;;;5053479;28;20353;-43
2021/10/31 05:34:16;;;;;;;8.75;7.72;;;10.30;99.90;;;;;;5050361;28;20035;-43
2021/10/31 05:36:42;;;;;;;9.30;7.72;;;10.30;99.90;;;;;;5054486;28;20036;-43
2021/10/31 05:39:08;;;;;;;9.95;7.85;;;10.30;99.90;;;;;;5048499;28;20025;-43
2021/10/31 05:41:33;;;;;;;10.57;8.88;;;10.30;99.90;;;;;;5057633;28;20487;-44
2021/10/31 05:43:59;;;;;;;9.45;7.75;;;10.30;99.90;;;;;;5047282;28;20037;-44
2021/10/31 05:46:24;;;;;;;9.80;7.63;;;10.30;99.90;;;;;;5057932;28;20025;-43
2021/10/31 05:48:50;;;;;;;8.18;7.10;;;10.30;99.90;;;;;;5046585;28;20108;-43
2021/10/31 05:51:16;;;;;;;9.68;7.88;;;10.20;99.90;;;;;;5058569;28;20484;-44
2021/10/31 05:53:41;;;;;;;10.10;7.40;;;10.10;99.90;;;;;;5046316;28;20029;-44
2021/10/31 05:56:08;;;;;;;8.65;7.60;;;10.10;99.90;;;;;;5057519;28;20048;-44
2021/10/31 05:58:33;;;;;;;10.13;8.55;;;10.10;99.90;;;;;;5046612;28;20013;-43
2021/10/31 06:00:59;;;;;;;11.48;8.48;;;10.00;99.90;;;;;;5056808;28;20032;-43
2021/10/31 06:03:24;;;;;;;11.20;8.45;;;10.10;99.90;;;;;;5047756;28;20476;-44
2021/10/31 06:05:50;;;;;;;9.23;7.97;;;10.00;99.90;;;;;;5054227;28;20048;-42
2021/10/31 06:08:19;;;;;;;9.93;8.55;;;10.10;99.90;;;;;;5051023;28;20049;-42
2021/10/31 06:10:45;;;;;;;12.13;8.35;;;10.10;99.90;;;;;;5050778;28;20077;-44
2021/10/31 06:13:11;;;;;;;10.60;8.43;;;10.10;99.90;;;;;;5053254;28;20496;-44
2021/10/31 06:15:37;;;;;;;11.70;8.63;;;10.10;99.90;;;;;;5049265;28;20021;-43
2021/10/31 06:18:02;;;;;;;10.50;8.85;;;10.10;99.90;;;;;;5054523;28;20160;-43
2021/10/31 06:20:28;;;;;;;10.02;8.30;;;10.20;99.90;;;;;;5047523;28;20024;-43
2021/10/31 06:22:53;;;;;;;12.45;8.55;;;10.20;99.90;;;;;;5057302;28;20278;-43
2021/10/31 06:25:19;;;;;;;9.52;7.72;;;10.20;99.90;;;;;;5046780;28;20465;-42
2021/10/31 06:27:44;;;;;;;11.20;8.98;;;10.20;99.90;;;;;;5056971;28;20116;-42
2021/10/31 06:30:10;;;;;;;9.18;8.07;;;10.30;99.90;;;;;;5046224;28;20021;-43
2021/10/31 06:32:36;;;;;;;9.90;8.13;;;10.30;99.90;;;;;;5057984;28;20039;-43
2021/10/31 06:35:02;;;;;;;8.70;7.60;;;10.30;99.90;;;;;;5046407;28;20476;-43
2021/10/31 06:37:31;;;;;;;10.23;7.80;;;10.30;99.90;;;;;;5058279;28;20020;-43
2021/10/31 06:39:57;;;;;;;9.65;8.13;;;10.40;99.90;;;;;;5045465;28;20101;-43
2021/10/31 06:42:26;;;;;;;9.55;8.27;;;10.40;99.90;;;;;;5056770;28;20100;-42
2021/10/31 06:44:52;;;;;;;11.60;8.35;;;10.40;99.90;;;;;;5047233;28;20025;-44
2021/10/31 06:47:17;;;;;;;9.88;8.55;;;10.40;99.90;;;;;;5054067;28;20045;-44
2021/10/31 06:49:44;;;;;;;11.18;8.85;;;10.30;99.90;;;;;;5052987;28;20079;-43
2021/10/31 06:52:09;;;;;;;14.50;8.95;;;10.30;99.90;;;;;;5052607;28;20116;-43
2021/10/31 06:54:35;;;;;;;12.40;8.45;;;10.30;99.90;;;;;;5054381;28;20116;-43
2021/10/31 06:57:01;;;;;;;11.00;9.13;;;10.40;99.90;;;;;;5053935;28;20036;-44
2021/10/31 06:59:27;;;;;;;10.95;8.60;;;10.40;99.90;;;;;;5059822;28;20024;-43
2021/10/31 07:01:55;;;;;;;9.88;8.38;;;10.40;99.90;;;;;;5066898;28;20028;-44
2021/10/31 07:04:20;;;;;;;8.85;7.95;;;10.40;99.90;;;;;;5058298;28;20055;-44
2021/10/31 07:06:46;;;;;;;12.48;8.25;;;10.40;99.90;;;;;;5066259;28;20747;-45
2021/10/31 07:09:12;;;;;;;9.27;8.23;;;10.40;99.90;;;;;;5057668;28;20078;-43
2021/10/31 07:11:37;;;;;;;10.52;8.90;;;10.40;99.90;;;;;;5068086;28;20857;-42
2021/10/31 07:14:03;;;;;;;9.45;8.27;;;10.40;99.90;;;;;;5060797;28;20037;-42
2021/10/31 07:16:29;;;;;;;9.40;8.45;;;10.40;99.90;;;;;;5048600;28;20106;-42
2021/10/31 07:18:55;;;;;;;9.50;8.10;;;10.40;99.90;;;;;;5060569;28;20016;-45
2021/10/31 07:21:21;;;;;;;9.75;7.97;;;10.40;99.90;;;;;;5048613;28;20488;-43
2021/10/31 07:23:46;;;;;;;8.75;7.82;;;10.40;99.90;;;;;;5058791;28;20013;-43
2021/10/31 07:26:12;;;;;;;8.82;7.93;;;10.40;99.90;;;;;;5050079;28;20037;-43
2021/10/31 07:28:38;;;;;;;9.10;8.02;;;10.50;99.90;;;;;;5055838;28;20016;-43
2021/10/31 07:31:05;;;;;;;8.57;7.68;;;10.50;99.90;;;;;;5053281;28;20112;-43
2021/10/31 07:33:31;;;;;;;11.70;7.95;;;10.50;99.90;;;;;;5053984;28;20013;-44
2021/10/31 07:35:57;;;;;;;8.93;7.88;;;10.50;99.90;;;;;;5054879;28;20494;-43
2021/10/31 07:38:22;;;;;;;10.63;7.47;;;10.50;99.90;;;;;;5051189;28;20074;-43
2021/10/31 07:40:48;;;;;;;9.63;8.05;;;10.60;99.90;;;;;;5057416;28;20027;-44
2021/10/31 07:43:14;;;;;;;9.02;8.05;;;10.60;99.90;;;;;;5049418;28;20094;-43
2021/10/31 07:45:42;;;;;;;7.45;6.75;;;10.70;99.90;;;;;;5059104;28;20472;-44
2021/10/31 07:48:08;;;;;;;10.73;7.90;;;10.70;99.90;;;;;;5049312;28;20033;-43
2021/10/31 07:50:34;;;;;;;9.30;6.80;;;10.70;99.90;;;;;;5058521;28;20024;-44
2021/10/31 07:53:05;;;;;;;12.02;8.00;;;10.80;99.90;;;;;;5048095;28;20071;-44
2021/10/31 07:55:33;;;;;;;9.85;6.72;;;10.80;99.90;;;;;;5059237;28;20048;-44
2021/10/31 07:58:00;;;;;;;9.00;8.00;;;10.90;99.90;;;;;;5048078;28;20579;-44
2021/10/31 08:00:26;;;;;;;8.65;6.97;;;10.90;99.90;;;;;;5059235;28;20028;-43
2021/10/31 08:02:53;;;;;;;8.45;7.63;;;11.00;99.90;;;;;;5047119;28;20017;-44
2021/10/31 08:05:20;;;;;;;7.70;6.90;;;11.00;99.90;;;;;;5060234;28;20030;-44
2021/10/31 08:07:45;;;;;;;9.05;7.22;;;11.00;99.90;;;;;;5047602;28;20048;-43
2021/10/31 08:10:12;;;;;;;8.38;7.20;;;11.00;99.90;;;;;;5056986;28;20017;-44
2021/10/31 08:12:37;;;;;;;8.20;7.28;;;11.10;99.90;;;;;;5050650;28;20373;-43
2021/10/31 08:15:04;;;;;;;8.02;7.22;;;11.10;99.90;;;;;;5055641;28;20074;-42
2021/10/31 08:17:29;;;;;;;7.20;6.50;;;11.10;99.90;;;;;;5052919;28;20135;-43
2021/10/31 08:19:55;;;;;;;6.57;5.88;;;11.20;99.90;;;;;;5052623;28;20024;-44
2021/10/31 08:22:20;;;;;;;7.32;6.32;;;11.20;99.90;;;;;;5055978;28;20075;-44
2021/10/31 08:24:46;;;;;;;7.15;6.43;;;11.20;99.90;;;;;;5049371;28;20033;-44
2021/10/31 08:27:12;;;;;;;6.53;5.93;;;11.20;99.90;;;;;;5059340;28;20039;-43
2021/10/31 08:29:38;;;;;;;5.95;5.22;;;11.30;99.90;;;;;;5049444;28;20055;-43
2021/10/31 08:32:05;;;;;;;5.75;5.25;;;11.40;99.90;;;;;;5057245;28;20476;-44
2021/10/31 08:34:31;;;;;;;7.55;6.75;;;11.40;99.90;;;;;;5067339;28;20044;-44
2021/10/31 08:36:56;;;;;;;6.43;5.82;;;11.40;99.90;;;;;;5055881;28;20635;-43
2021/10/31 08:39:22;;;;;;;7.05;6.32;;;11.50;99.90;;;;;;5067446;28;20091;-44
2021/10/31 08:41:47;;;;;;;9.02;6.90;;;11.50;99.90;;;;;;5055090;28;20032;-43
2021/10/31 08:44:13;;;;;;;7.40;6.70;;;11.50;99.90;;;;;;5068046;28;20024;-44
2021/10/31 08:46:38;;;;;;;6.57;5.88;;;11.60;99.90;;;;;;5053649;28;20041;-43
2021/10/31 08:49:04;;;;;;;8.30;7.50;;;11.60;99.90;;;;;;5067494;28;20028;-44
2021/10/31 08:51:30;;;;;;;8.45;6.13;;;11.60;99.90;;;;;;5057740;28;20021;-43
2021/10/31 08:53:58;;;;;;;6.72;6.10;;;11.70;99.90;;;;;;5063606;28;20043;-43
2021/10/31 08:56:25;;;;;;;7.72;5.10;;;11.70;99.90;;;;;;5059610;28;20132;-43
2021/10/31 08:58:51;;;;;;;6.53;5.63;;;11.70;99.90;;;;;;5061775;28;20020;-45
2021/10/31 09:01:17;;;;;;;7.65;5.65;;;11.70;99.90;;;;;;5062951;28;20025;-43
2021/10/31 09:03:44;;;;;;;9.60;6.03;;;11.70;99.90;;;;;;5059186;28;20299;-43
2021/10/31 09:06:10;;;;;;;8.55;6.57;;;11.70;99.90;;;;;;5064677;28;20036;-43
2021/10/31 09:08:36;;;;;;;7.78;5.93;;;11.70;99.90;;;;;;5057252;28;20480;-44
2021/10/31 09:11:04;;;;;;;6.88;6.18;;;11.80;99.90;;;;;;5065057;28;20078;-44
2021/10/31 09:13:30;;;;;;;6.95;5.60;;;11.80;99.90;;;;;;5055238;28;20021;-43
2021/10/31 09:15:55;;;;;;;9.93;6.22;;;11.80;99.90;;;;;;5066232;28;20028;-44
2021/10/31 09:18:21;;;;;;;5.80;5.28;;;11.80;99.90;;;;;;5055758;28;20028;-44
2021/10/31 09:20:48;;;;;;;5.70;4.93;;;11.80;99.90;;;;;;5066687;28;20029;-43
2021/10/31 09:23:13;;;;;;;5.90;5.30;;;11.90;99.90;;;;;;5054875;28;20033;-44
2021/10/31 09:25:39;;;;;;;7.20;5.22;;;11.90;99.90;;;;;;5066669;28;20020;-44
2021/10/31 09:28:06;;;;;;;5.60;4.80;;;12.00;99.90;;;;;;5054767;28;20107;-43
2021/10/31 09:30:38;;;;;;;6.70;5.28;;;12.00;99.90;;;;;;5067063;28;20099;-43
2021/10/31 09:33:05;;;;;;;5.85;5.13;;;12.10;99.90;;;;;;5056241;28;20113;-45
2021/10/31 09:35:32;;;;;;;6.63;4.88;;;12.20;99.90;;;;;;5064653;28;20087;-44
2021/10/31 09:38:02;;;;;;;6.07;5.47;;;12.20;99.90;;;;;;5058471;28;20568;-44
2021/10/31 09:40:28;;;;;;;5.18;4.68;;;12.30;99.90;;;;;;5063113;28;20400;-44
2021/10/31 09:42:56;;;;;;;5.70;5.07;;;12.40;99.90;;;;;;5059428;28;20037;-44
2021/10/31 09:45:24;;;;;;;5.28;4.75;;;12.40;99.90;;;;;;5061323;28;20047;-44
2021/10/31 09:48:01;;;;;;;4.93;4.25;;;12.40;99.90;;;;;;5061688;28;20126;-44
2021/10/31 09:50:28;;;;;;;5.00;4.28;;;12.50;99.90;;;;;;5060305;28;20508;-44
2021/10/31 09:52:54;;;;;;;5.38;4.10;;;12.50;99.90;;;;;;5063047;28;20032;-43
2021/10/31 09:55:21;;;;;;;4.72;4.20;;;12.50;99.90;;;;;;5056978;28;20770;-43
2021/10/31 09:57:47;;;;;;;4.45;4.05;;;12.60;99.90;;;;;;5064998;28;20020;-43
2021/10/31 10:00:14;;;;;;;4.38;3.97;;;12.70;99.90;;;;;;5055752;28;20017;-43
2021/10/31 10:05:28;;;;;;;5.85;4.45;;;12.80;99.90;;;;;;5055100;28;20036;-43
2021/10/31 10:08:08;;;;;;;4.53;4.13;;;12.80;99.90;;;;;;5065062;28;20037;-44
2021/10/31 10:10:52;;;;;;;5.32;4.35;;;12.90;99.90;;;;;;5052288;28;20480;-43
2021/10/31 10:13:31;;;;;;;5.18;4.40;;;13.00;99.90;;;;;;5064021;28;20012;-43
2021/10/31 10:16:19;;;;;;;4.57;3.90;;;13.10;99.90;;;;;;5047442;28;20020;-43
2021/10/31 10:18:44;;;;;;;3.80;3.38;;;13.10;99.90;;;;;;5049610;28;20473;-42
2021/10/31 10:21:15;;;;;;;4.20;3.33;;;13.20;99.90;;;;;;5055711;28;20406;-42
2021/10/31 10:24:00;;;;;;;4.13;3.72;;;13.20;99.90;;;;;;5045786;28;20964;-43
2021/10/31 10:26:35;;;;;;;4.10;3.70;;;13.30;99.90;;;;;;5054628;28;20048;-43
2021/10/31 10:29:15;;;;;;;3.90;3.50;;;13.30;99.90;;;;;;5048510;28;20036;-42
2021/10/31 10:31:51;;;;;;;4.80;3.50;;;13.40;99.90;;;;;;5052903;28;20394;-43
2021/10/31 10:34:45;;;;;;;5.10;4.22;;;13.40;99.90;;;;;;5049958;28;20029;-44
2021/10/31 10:37:24;;;;;;;3.88;2.95;;;13.50;99.90;;;;;;5051414;28;20033;-43
2021/10/31 10:40:06;;;;;;;4.47;3.40;;;13.50;99.90;;;;;;5052573;28;20024;-43
2021/10/31 10:42:36;;;;;;;3.45;2.83;;;13.60;99.90;;;;;;5049710;28;20035;-43
2021/10/31 10:45:09;;;;;;;3.80;3.00;;;13.60;99.90;;;;;;5051800;28;20028;-43
2021/10/31 10:47:48;;;;;;;2.90;2.60;;;13.60;99.90;;;;;;5050478;28;20043;-44
2021/10/31 10:50:33;;;;;;;3.35;2.83;;;13.60;99.90;;;;;;5053369;28;20025;-45
2021/10/31 10:52:58;;;;;;;3.60;2.80;;;13.70;99.90;;;;;;5048206;28;20032;-43
2021/10/31 10:55:30;;;;;;;4.15;2.90;;;13.70;99.90;;;;;;5053122;28;20158;-44
2021/10/31 10:57:57;;;;;;;2.92;2.47;;;13.80;99.90;;;;;;5049364;28;20043;-42
2021/10/31 11:00:35;;;;;;;3.10;2.80;;;13.90;99.90;;;;;;5050367;28;20016;-43
2021/10/31 11:03:07;;;;;;;3.00;2.67;;;14.10;99.90;;;;;;5051120;28;20025;-43
2021/10/31 11:05:35;;;;;;;2.30;2.10;;;14.20;99.90;;;;;;5050944;28;20056;-43
2021/10/31 11:08:01;;;;;;;3.83;2.40;;;14.30;99.90;;;;;;5052190;28;20041;-43
2021/10/31 11:10:30;;;;;;;2.22;2.03;;;14.40;99.90;;;;;;5048650;28;20083;-43
2021/10/31 11:13:04;;;;;;;2.40;2.20;;;14.50;99.90;;;;;;5054126;28;20033;-43
2021/10/31 11:15:32;;;;;;;3.10;2.10;;;14.60;99.90;;;;;;5047744;28;20027;-46
2021/10/31 11:18:00;;;;;;;2.25;1.83;;;14.60;99.90;;;;;;5055682;28;20477;-43
2021/10/31 11:20:29;;;;;;;1.95;1.77;;;14.70;99.90;;;;;;5046720;28;20032;-43
2021/10/31 11:22:57;;;;;;;3.90;2.22;;;14.80;99.90;;;;;;5056748;28;20036;-43
2021/10/31 11:25:25;;;;;;;2.22;2.03;;;14.90;99.90;;;;;;5046769;28;20033;-43
2021/10/31 11:27:52;;;;;;;2.08;1.58;;;15.00;99.90;;;;;;5055408;28;20037;-43
2021/10/31 11:30:20;;;;;;;3.83;1.92;;;15.10;99.90;;;;;;5045413;28;20071;-43
2021/10/31 11:32:46;;;;;;;1.70;1.60;;;15.10;99.90;;;;;;5051715;28;20028;-43
2021/10/31 11:35:14;;;;;;;2.03;1.48;;;15.10;99.90;;;;;;5067682;28;20107;-43
2021/10/31 11:37:45;;;;;;;2.22;1.70;;;15.10;99.90;;;;;;5056443;28;20108;-43
2021/10/31 11:40:12;;;;;;;2.55;1.70;;;15.10;99.90;;;;;;5069722;28;20114;-44
2021/10/31 11:42:48;;;;;;;2.80;1.67;;;15.10;99.90;;;;;;5055501;28;20017;-43
2021/10/31 11:45:18;;;;;;;2.53;1.80;;;15.10;99.90;;;;;;5069949;28;20045;-43
2021/10/31 11:48:09;;;;;;;1.88;1.67;;;15.10;99.90;;;;;;5055691;28;20037;-42
2021/10/31 11:50:35;;;;;;;2.92;1.63;;;15.10;99.90;;;;;;5029297;28;20026;-43
2021/10/31 11:53:02;;;;;;;2.25;1.70;;;15.20;99.90;;;;;;5058499;28;20028;-42
2021/10/31 11:55:32;;;;;;;2.30;1.60;;;15.10;99.90;;;;;;5048156;28;20047;-43
2021/10/31 11:58:27;;;;;;;1.63;1.40;;;15.10;99.90;;;;;;5053981;28;20496;-43
2021/10/31 12:00:58;;;;;;;1.65;1.55;;;15.20;99.90;;;;;;5044369;28;20045;-42
2021/10/31 12:03:32;;;;;;;2.22;1.70;;;15.10;99.90;;;;;;5060261;28;20031;-44
2021/10/31 12:06:22;;;;;;;1.65;1.55;;;15.10;99.90;;;;;;5049013;28;20069;-44
2021/10/31 12:08:54;;;;;;;1.70;1.60;;;15.10;99.90;;;;;;5060358;28;20024;-44
2021/10/31 12:11:29;;;;;;;1.83;1.67;;;15.10;99.90;;;;;;5049143;28;20048;-44
2021/10/31 12:13:56;;;;;;;2.45;1.60;;;15.10;99.90;;;;;;5060909;28;20464;-43
2021/10/31 12:16:23;;;;;;;1.73;1.60;;;15.10;99.90;;;;;;5048606;28;20032;-44
2021/10/31 12:18:52;;;;;;;2.40;1.50;;;15.10;99.90;;;;;;5060695;28;20013;-44
2021/10/31 12:21:22;;;;;;;2.22;1.70;;;15.10;99.90;;;;;;5028606;28;20075;-43
2021/10/31 12:24:08;;;;;;;2.00;1.80;;;15.20;99.90;;;;;;5053508;28;20123;-46
2021/10/31 12:26:41;;;;;;;1.63;1.52;;;15.20;99.90;;;;;;5028490;28;20060;-43
2021/10/31 12:29:11;;;;;;;1.92;1.63;;;15.20;99.90;;;;;;5056816;28;20048;-43
2021/10/31 12:31:38;;;;;;;2.30;1.55;;;15.20;99.90;;;;;;5032458;28;20025;-44
2021/10/31 12:34:17;;;;;;;2.53;2.00;;;15.20;99.90;;;;;;5058288;28;20029;-44
2021/10/31 12:36:47;;;;;;;1.92;1.80;;;15.20;99.90;;;;;;5048215;28;20021;-44
2021/10/31 12:39:26;;;;;;;1.73;1.63;;;15.30;99.90;;;;;;5058357;28;20020;-43
2021/10/31 12:42:11;;;;;;;1.23;1.13;;;15.30;99.90;;;;;;5048787;28;20056;-43
2021/10/31 12:44:37;;;;;;;4.10;1.50;;;15.40;99.90;;;;;;5059286;28;20024;-44
2021/10/31 12:47:07;;;;;;;1.63;1.50;;;15.40;99.90;;;;;;5047253;28;20040;-42
2021/10/31 12:49:33;;;;;;;2.42;1.90;;;15.40;99.90;;;;;;5057573;28;20017;-43
2021/10/31 12:52:03;;;;;;;2.10;1.83;;;15.40;99.90;;;;;;5049535;28;20040;-43
2021/10/31 12:54:36;;;;;;;1.50;1.40;;;15.50;99.90;;;;;;5055567;28;20116;-43
2021/10/31 12:57:10;;;;;;;2.92;1.38;;;15.50;99.90;;;;;;5051327;28;20171;-42
2021/10/31 12:59:46;;;;;;;2.15;1.60;;;15.50;99.90;;;;;;5053891;28;20024;-42